Arcadia, Illinois
Current Conditions -  °F | °C
As of 12:15 PM on Friday 28 Nov 2014 (Local Time) from KIJX Reporting Station
Clear Clear  
Wind Chill:   Ceiling: Unl
Heat Index:   Visibility: 10mi
Dew Point: -1°   Wind: 14mph
Humidity: 71%   Direction: 160°SSE
Pressure: 30.02"   Gusts: 21mph
Location:  39.7413°N, 90.2138°W
Report Text: KIJX 281815Z AUTO 16012G18KT 10SM CLR 04/M01 A3002 RMK AO2 T00411007
Loading
Personal Weather Stations






























Interactive Weather Map New forecast layout! Learn more

10-Day Weather Forecast

Advertisements
Track Severe Weather on mobile